createdAt,value
2022-08-12T00:00:35.242Z,54.30
2022-08-12T00:03:21.242Z,54.30
2022-08-12T00:06:07.673Z,54.50
2022-08-12T00:08:56.233Z,54.50
2022-08-12T00:11:42.311Z,54.70
2022-08-12T00:14:27.984Z,54.90
2022-08-12T00:17:13.127Z,55.10
2022-08-12T00:19:58.213Z,55.30
2022-08-12T00:22:43.354Z,55.20
2022-08-12T00:26:01.348Z,55.30
2022-08-12T00:28:33.835Z,55.40
2022-08-12T00:31:18.921Z,55.40
2022-08-12T00:34:05.216Z,55.50
2022-08-12T00:36:50.725Z,55.60
2022-08-12T00:39:36.061Z,55.70
2022-08-12T00:42:11.611Z,55.70
2022-08-12T00:44:43.324Z,55.80
2022-08-12T00:47:11.635Z,56.30
2022-08-12T00:49:53.738Z,55.80
2022-08-12T00:52:20.538Z,56.00
2022-08-12T00:54:57.108Z,56.00
2022-08-12T00:57:31.974Z,56.10
2022-08-12T01:00:21.439Z,56.10
2022-08-12T01:02:52.114Z,56.10
2022-08-12T01:05:40.853Z,56.20
2022-08-12T01:08:25.992Z,56.20
2022-08-12T01:11:11.817Z,56.30
2022-08-12T01:13:49.025Z,56.30
2022-08-12T01:16:17.588Z,56.30
2022-08-12T01:18:44.690Z,56.30
2022-08-12T01:21:39.096Z,56.50
2022-08-12T01:24:30.917Z,56.50
2022-08-12T01:26:58.844Z,56.50
2022-08-12T01:29:32.600Z,56.50
2022-08-12T01:32:00.964Z,56.50
2022-08-12T01:34:39.193Z,56.60
2022-08-12T01:37:09.754Z,56.70
2022-08-12T01:40:35.376Z,56.80
2022-08-12T01:42:45.950Z,56.70
2022-08-12T01:45:13.097Z,56.70
2022-08-12T01:47:51.199Z,57.50
2022-08-12T01:50:21.806Z,56.90
2022-08-12T01:52:56.588Z,57.10
2022-08-12T01:55:28.889Z,57.00
2022-08-12T01:58:24.286Z,57.10
2022-08-12T02:01:03.758Z,57.20
2022-08-12T02:04:28.182Z,57.20
2022-08-12T02:07:32.826Z,57.30
2022-08-12T02:10:50.084Z,57.20
2022-08-12T02:13:57.426Z,57.20
2022-08-12T02:16:40.164Z,57.30
2022-08-12T02:19:23.460Z,57.30
2022-08-12T02:22:17.978Z,57.40
2022-08-12T02:24:45.741Z,57.40
2022-08-12T02:27:13.416Z,57.50
2022-08-12T02:29:40.375Z,57.60
2022-08-12T02:32:07.574Z,57.60
2022-08-12T02:34:34.641Z,57.60
2022-08-12T02:37:02.534Z,57.60
2022-08-12T02:39:31.361Z,57.50
2022-08-12T02:41:58.626Z,57.60
2022-08-12T02:44:25.477Z,57.70
2022-08-12T02:46:54.706Z,57.80
2022-08-12T02:49:31.649Z,57.90
2022-08-12T02:52:01.396Z,58.00
2022-08-12T02:54:28.113Z,58.10
2022-08-12T02:56:54.833Z,58.10
2022-08-12T02:59:25.029Z,58.70
2022-08-12T03:01:57.075Z,58.40
2022-08-12T03:04:26.664Z,59.00
2022-08-12T03:07:01.231Z,58.40
2022-08-12T03:09:39.084Z,58.30
2022-08-12T03:12:20.227Z,58.20
2022-08-12T03:14:47.015Z,58.20
2022-08-12T03:17:25.911Z,58.10
2022-08-12T03:20:09.566Z,58.30
2022-08-12T03:22:40.469Z,58.30
2022-08-12T03:25:10.189Z,58.30
2022-08-12T03:27:39.308Z,58.30
2022-08-12T03:30:06.759Z,59.00
2022-08-12T03:32:38.245Z,58.70
2022-08-12T03:35:07.911Z,59.30
2022-08-12T03:37:35.462Z,58.80
2022-08-12T03:40:02.323Z,58.70
2022-08-12T03:43:05.792Z,58.50
2022-08-12T03:45:52.682Z,58.50
2022-08-12T03:48:38.015Z,58.40
2022-08-12T03:51:23.728Z,58.40
2022-08-12T03:54:11.334Z,58.40
2022-08-12T03:56:56.790Z,58.60
2022-08-12T03:59:41.784Z,58.70
2022-08-12T04:02:16.066Z,58.70
2022-08-12T04:04:45.633Z,58.60
2022-08-12T04:07:12.861Z,58.80
2022-08-12T04:09:40.964Z,58.80
2022-08-12T04:12:26.529Z,58.90
2022-08-12T04:14:53.765Z,59.00
2022-08-12T04:17:20.475Z,59.20
2022-08-12T04:19:48.357Z,58.90
2022-08-12T04:22:15.817Z,59.10
2022-08-12T04:24:42.889Z,59.40
2022-08-12T04:27:14.441Z,59.30
2022-08-12T04:30:29.550Z,59.10
2022-08-12T04:32:28.095Z,59.50
2022-08-12T04:34:55.230Z,58.90
2022-08-12T04:37:22.032Z,59.00
2022-08-12T04:39:49.034Z,59.60
2022-08-12T04:42:16.206Z,59.00
2022-08-12T04:44:43.317Z,59.10
2022-08-12T04:47:15.145Z,59.10
2022-08-12T04:49:43.172Z,59.40
2022-08-12T04:52:10.020Z,59.40
2022-08-12T04:54:37.764Z,59.50
2022-08-12T04:57:05.906Z,60.20
2022-08-12T04:59:46.733Z,59.50
2022-08-12T05:02:16.935Z,59.60
2022-08-12T05:04:50.077Z,59.30
2022-08-12T05:07:16.931Z,59.50
2022-08-12T05:10:00.692Z,59.60
2022-08-12T05:12:51.382Z,59.70
2022-08-12T05:15:27.491Z,59.90
2022-08-12T05:17:56.346Z,60.20
2022-08-12T05:20:27.053Z,60.00
2022-08-12T05:23:15.432Z,60.00
2022-08-12T05:25:43.290Z,60.00
2022-08-12T05:28:10.366Z,59.80
2022-08-12T05:30:37.148Z,59.70
2022-08-12T05:33:06.816Z,60.30
2022-08-12T05:35:36.977Z,59.70
2022-08-12T05:38:23.160Z,59.80
2022-08-12T05:40:51.057Z,59.70
2022-08-12T05:43:18.967Z,59.60
2022-08-12T05:45:46.297Z,59.40
2022-08-12T05:48:13.685Z,59.20
2022-08-12T05:50:41.264Z,58.90
2022-08-12T05:53:08.150Z,58.60
2022-08-12T05:55:35.444Z,58.90
2022-08-12T05:58:03.007Z,58.30
2022-08-12T06:00:31.884Z,58.60
2022-08-12T06:03:01.934Z,57.80
2022-08-12T06:05:43.263Z,57.70
2022-08-12T06:08:21.420Z,57.50
2022-08-12T06:10:50.381Z,58.30
2022-08-12T06:13:28.409Z,57.50
2022-08-12T06:16:04.952Z,57.30
2022-08-12T06:18:31.737Z,57.00
2022-08-12T06:21:01.941Z,56.80
2022-08-12T06:23:29.732Z,56.90
2022-08-12T06:25:56.740Z,56.70
2022-08-12T06:28:23.548Z,56.20
2022-08-12T06:31:14.974Z,56.10
2022-08-12T06:33:57.793Z,55.80
2022-08-12T06:36:29.347Z,55.70
2022-08-12T06:38:57.000Z,55.20
2022-08-12T06:42:10.747Z,55.40
2022-08-12T06:44:29.014Z,54.80
2022-08-12T06:46:58.332Z,54.70
2022-08-12T06:49:25.365Z,54.70
2022-08-12T06:51:56.779Z,54.60
2022-08-12T06:54:30.943Z,54.40
2022-08-12T06:57:04.884Z,54.10
2022-08-12T06:59:48.579Z,54.30
2022-08-12T07:02:15.460Z,54.20
2022-08-12T07:04:43.107Z,54.00
2022-08-12T07:07:10.390Z,53.90
2022-08-12T07:10:03.674Z,53.80
2022-08-12T07:12:28.034Z,53.60
2022-08-12T07:14:56.717Z,53.20
2022-08-12T07:17:23.654Z,53.20
2022-08-12T07:19:51.951Z,52.40
2022-08-12T07:22:19.078Z,52.80
2022-08-12T07:25:05.827Z,53.00
2022-08-12T07:27:40.814Z,52.40
2022-08-12T07:30:09.795Z,53.10
2022-08-12T07:32:36.771Z,52.30
2022-08-12T07:35:04.187Z,52.40
2022-08-12T07:37:31.443Z,52.30
2022-08-12T07:40:00.456Z,52.50
2022-08-12T07:42:28.712Z,52.80
2022-08-12T07:44:56.605Z,52.90
2022-08-12T07:47:24.088Z,52.90
2022-08-12T07:50:04.669Z,52.90
2022-08-12T07:52:34.294Z,52.80
2022-08-12T07:55:01.094Z,52.90
2022-08-12T07:57:27.863Z,52.30
2022-08-12T07:59:55.558Z,52.20
2022-08-12T08:02:26.680Z,52.30
2022-08-12T08:04:56.701Z,52.30
2022-08-12T08:07:24.179Z,51.80
2022-08-12T08:09:58.388Z,52.10
2022-08-12T08:12:45.087Z,51.80
2022-08-12T08:15:11.898Z,52.00
2022-08-12T08:17:38.712Z,52.10
2022-08-12T08:20:06.334Z,51.70
2022-08-12T08:22:41.023Z,52.00
2022-08-12T08:25:34.758Z,51.80
2022-08-12T08:27:56.754Z,51.70
2022-08-12T08:30:23.954Z,51.60
2022-08-12T08:32:50.665Z,51.50
2022-08-12T08:35:17.476Z,51.40
2022-08-12T08:37:48.344Z,50.80
2022-08-12T08:40:33.529Z,51.00
2022-08-12T08:43:00.257Z,51.20
2022-08-12T08:45:28.387Z,51.40
2022-08-12T08:47:59.628Z,51.70
2022-08-12T08:50:27.273Z,51.50
2022-08-12T08:52:53.994Z,51.30
2022-08-12T08:55:25.674Z,51.20
2022-08-12T08:58:00.253Z,51.10
2022-08-12T09:00:27.051Z,51.10
2022-08-12T09:02:59.419Z,50.80
2022-08-12T09:05:27.420Z,50.90
2022-08-12T09:08:08.904Z,50.90
2022-08-12T09:10:45.047Z,50.60
2022-08-12T09:14:12.209Z,50.20
2022-08-12T09:16:21.406Z,50.60
2022-08-12T09:21:54.274Z,50.40
2022-08-12T09:24:22.139Z,48.50
2022-08-12T09:26:49.065Z,47.70
2022-08-12T09:29:18.289Z,46.90
2022-08-12T09:32:06.913Z,47.20
2022-08-12T09:34:36.212Z,46.50
2022-08-12T09:37:20.049Z,46.60
2022-08-12T09:40:06.092Z,47.20
2022-08-12T09:46:19.934Z,50.40
2022-08-12T09:48:35.202Z,51.10
2022-08-12T09:51:02.783Z,51.80
2022-08-12T09:53:36.205Z,51.60
2022-08-12T09:56:56.705Z,52.40
2022-08-12T09:58:58.289Z,52.30
2022-08-12T10:01:34.638Z,53.50
2022-08-12T10:04:14.947Z,54.30
2022-08-12T10:06:55.217Z,53.60
2022-08-12T10:09:28.844Z,52.90
2022-08-12T10:12:31.297Z,50.90
2022-08-12T10:16:02.429Z,50.70
2022-08-12T10:18:06.838Z,49.60
2022-08-12T10:20:34.288Z,50.30
2022-08-12T10:23:01.825Z,49.00
2022-08-12T10:26:34.883Z,48.30
2022-08-12T10:29:02.761Z,46.80
2022-08-12T10:32:20.086Z,47.30
2022-08-12T10:34:24.024Z,47.00
2022-08-12T10:36:58.610Z,46.20
2022-08-12T10:40:02.150Z,45.10
2022-08-12T10:42:38.357Z,45.00
2022-08-12T10:45:06.861Z,44.80
2022-08-12T10:48:19.835Z,44.60
2022-08-12T10:50:29.616Z,44.70
2022-08-12T10:53:08.898Z,44.80
2022-08-12T10:55:43.832Z,44.90
2022-08-12T10:58:14.486Z,44.90
2022-08-12T11:01:48.888Z,44.50
2022-08-12T11:04:27.683Z,44.50
2022-08-12T11:07:08.264Z,44.20
2022-08-12T11:09:51.411Z,44.10
2022-08-12T11:12:35.771Z,43.80
2022-08-12T11:14:56.745Z,43.90
2022-08-12T11:17:43.462Z,43.80
2022-08-12T11:20:15.173Z,43.70
2022-08-12T11:22:42.395Z,43.70
2022-08-12T11:25:24.940Z,43.90
2022-08-12T11:28:13.520Z,43.70
2022-08-12T11:30:40.645Z,43.60
2022-08-12T11:33:11.734Z,43.50
2022-08-12T11:35:41.532Z,42.90
2022-08-12T11:38:12.812Z,42.80
2022-08-12T11:40:42.559Z,43.20
2022-08-12T11:43:19.111Z,43.40
2022-08-12T11:45:47.428Z,43.70
2022-08-12T11:48:15.367Z,44.00
2022-08-12T11:50:45.505Z,43.80
2022-08-12T11:53:58.625Z,44.10
2022-08-12T11:55:58.956Z,44.20
2022-08-12T11:58:39.380Z,44.20
2022-08-12T12:02:01.208Z,44.30
2022-08-12T12:03:59.292Z,44.70
2022-08-12T12:06:26.058Z,44.50
2022-08-12T12:08:53.913Z,44.90
2022-08-12T12:11:21.588Z,44.80
2022-08-12T12:14:08.743Z,44.60
2022-08-12T12:16:39.591Z,44.60
2022-08-12T12:19:08.830Z,45.00
2022-08-12T12:21:48.274Z,45.30
2022-08-12T12:24:21.068Z,45.50
2022-08-12T12:27:00.871Z,45.30
2022-08-12T12:30:18.525Z,45.50
2022-08-12T12:32:18.971Z,46.00
2022-08-12T12:35:13.520Z,45.80
2022-08-12T12:38:04.252Z,45.20
2022-08-12T12:40:20.043Z,45.60
2022-08-12T12:42:54.474Z,45.10
2022-08-12T12:45:25.894Z,44.30
2022-08-12T12:47:56.113Z,44.30
2022-08-12T12:50:35.315Z,44.20
2022-08-12T12:53:06.147Z,44.40
2022-08-12T12:55:35.767Z,44.90
2022-08-12T12:58:04.847Z,45.50
2022-08-12T13:00:32.776Z,45.70
2022-08-12T13:03:00.109Z,46.00
2022-08-12T13:05:42.442Z,46.50
2022-08-12T13:08:27.978Z,46.60
2022-08-12T13:10:56.067Z,46.90
2022-08-12T13:14:08.995Z,47.20
2022-08-12T13:16:14.233Z,47.30
2022-08-12T13:18:41.252Z,47.70
2022-08-12T13:21:15.629Z,47.90
2022-08-12T13:23:57.860Z,48.10
2022-08-12T13:26:24.622Z,48.30
2022-08-12T13:28:55.951Z,48.80
2022-08-12T13:31:25.186Z,49.10
2022-08-12T13:34:33.321Z,49.60
2022-08-12T13:36:40.991Z,49.80
2022-08-12T13:39:08.293Z,50.40
2022-08-12T13:41:35.859Z,50.50
2022-08-12T13:44:04.842Z,50.50
2022-08-12T13:46:31.811Z,50.80
2022-08-12T13:48:58.608Z,50.80
2022-08-12T13:51:25.340Z,51.10
2022-08-12T13:54:14.024Z,51.30
2022-08-12T13:56:40.935Z,51.30
2022-08-12T13:59:08.569Z,51.20
2022-08-12T14:01:40.275Z,51.20
2022-08-12T14:04:11.499Z,51.40
2022-08-12T14:06:39.336Z,51.00
2022-08-12T14:09:15.549Z,51.50
2022-08-12T14:11:51.341Z,50.80
2022-08-12T14:14:31.696Z,50.50
2022-08-12T14:17:05.553Z,50.40
2022-08-12T14:19:35.688Z,50.90
2022-08-12T14:22:10.388Z,50.00
2022-08-12T14:24:40.677Z,50.00
2022-08-12T14:27:10.086Z,50.00
2022-08-12T14:30:04.950Z,50.10
2022-08-12T14:32:35.207Z,50.20
2022-08-12T14:35:11.010Z,50.30
2022-08-12T14:37:55.565Z,50.40
2022-08-12T14:40:27.709Z,50.80
2022-08-12T14:42:55.259Z,50.70
2022-08-12T14:45:24.618Z,51.00
2022-08-12T14:48:11.647Z,51.40
2022-08-12T14:51:02.603Z,51.60
2022-08-12T14:59:23.904Z,51.20
2022-08-12T15:01:52.236Z,51.50
2022-08-12T15:04:24.554Z,51.40
2022-08-12T15:06:53.253Z,51.20
2022-08-12T15:09:29.068Z,50.90
2022-08-12T15:12:03.879Z,50.60
2022-08-12T15:14:31.708Z,50.80
2022-08-12T15:17:00.581Z,50.40
2022-08-12T15:20:27.929Z,50.70
2022-08-12T15:22:35.810Z,50.60
2022-08-12T15:25:07.890Z,50.30
2022-08-12T15:28:04.180Z,50.70
2022-08-12T15:30:30.406Z,50.40
2022-08-12T15:32:57.583Z,50.10
2022-08-12T15:35:27.452Z,50.00
2022-08-12T15:38:19.473Z,50.30
2022-08-12T15:40:49.430Z,50.50
2022-08-12T15:43:52.015Z,50.60
2022-08-12T15:46:04.787Z,50.90
2022-08-12T15:48:32.760Z,51.20
2022-08-12T15:51:00.370Z,51.40
2022-08-12T15:53:45.560Z,51.60
2022-08-12T15:56:22.156Z,51.90
2022-08-12T15:58:59.140Z,51.80
2022-08-12T16:01:34.042Z,51.30
2022-08-12T16:04:02.056Z,51.60
2022-08-12T16:07:00.524Z,51.90
2022-08-12T16:09:21.313Z,53.10
2022-08-12T16:11:48.735Z,53.50
2022-08-12T16:14:16.291Z,53.30
2022-08-12T16:16:43.190Z,53.70
2022-08-12T16:20:03.488Z,54.30
2022-08-12T16:22:07.133Z,54.50
2022-08-12T16:24:43.544Z,54.70
2022-08-12T16:27:13.538Z,54.80
2022-08-12T16:29:52.619Z,55.00
2022-08-12T16:32:24.371Z,55.50
2022-08-12T16:34:55.907Z,55.60
2022-08-12T16:38:04.647Z,55.80
2022-08-12T16:40:11.542Z,55.90
2022-08-12T16:42:39.467Z,55.80
2022-08-12T16:45:22.957Z,55.90
2022-08-12T16:48:00.625Z,56.10
2022-08-12T16:50:30.847Z,56.40
2022-08-12T16:53:02.169Z,56.30
2022-08-12T16:55:42.173Z,56.40
2022-08-12T16:58:13.483Z,56.50
2022-08-12T17:00:55.369Z,56.30
2022-08-12T17:03:28.634Z,56.10
2022-08-12T17:05:56.225Z,55.80
2022-08-12T17:08:29.126Z,55.60
2022-08-12T17:10:56.317Z,55.40
2022-08-12T17:13:26.222Z,55.40
2022-08-12T17:16:05.796Z,55.50
2022-08-12T17:18:43.412Z,55.50
2022-08-12T17:21:20.317Z,55.40
2022-08-12T17:24:10.897Z,55.40
2022-08-12T17:26:44.861Z,55.30
2022-08-12T17:29:18.684Z,55.40
2022-08-12T17:32:01.390Z,55.30
2022-08-12T17:34:50.552Z,55.50
2022-08-12T17:37:17.363Z,55.40
2022-08-12T17:40:13.766Z,55.60
2022-08-12T17:42:34.565Z,55.50
2022-08-12T17:45:17.216Z,55.40
2022-08-12T17:48:01.042Z,55.20
2022-08-12T17:50:34.464Z,55.20
2022-08-12T17:53:02.938Z,55.20
2022-08-12T17:55:43.118Z,55.20
2022-08-12T17:58:13.069Z,55.40
2022-08-12T18:00:43.666Z,55.20
2022-08-12T18:03:10.838Z,55.20
2022-08-12T18:05:43.666Z,55.90
2022-08-12T18:08:33.242Z,55.40
2022-08-12T18:12:04.526Z,55.20
2022-08-12T18:14:06.095Z,55.40
2022-08-12T18:16:34.562Z,55.50
2022-08-12T18:19:02.464Z,55.70
2022-08-12T18:22:00.974Z,55.80
2022-08-12T18:24:21.673Z,55.80
2022-08-12T18:26:49.288Z,55.90
2022-08-12T18:29:16.310Z,55.90
2022-08-12T18:31:44.260Z,56.00
2022-08-12T18:34:26.818Z,56.20
2022-08-12T18:36:55.633Z,56.30
2022-08-12T18:39:22.581Z,56.40
2022-08-12T18:41:49.341Z,56.40
2022-08-12T18:44:16.102Z,56.40
2022-08-12T18:46:55.936Z,56.40
2022-08-12T18:49:32.066Z,56.40
2022-08-12T18:52:04.234Z,56.50
2022-08-12T18:54:37.466Z,56.60
2022-08-12T18:57:19.564Z,56.50
2022-08-12T19:00:01.712Z,56.60
2022-08-12T19:02:36.408Z,56.50
2022-08-12T19:05:09.823Z,56.80
2022-08-12T19:07:49.275Z,56.90
2022-08-12T19:10:24.615Z,57.00
2022-08-12T19:13:10.525Z,56.90
2022-08-12T19:15:43.002Z,57.20
2022-08-12T19:18:10.250Z,57.00
2022-08-12T19:20:39.230Z,56.80
2022-08-12T19:23:16.085Z,56.70
2022-08-12T19:26:00.919Z,56.80
2022-08-12T19:28:35.461Z,56.90
2022-08-12T19:31:57.562Z,57.10
2022-08-12T19:36:14.339Z,57.20
2022-08-12T19:38:06.668Z,57.20
2022-08-12T19:40:34.539Z,57.30
2022-08-12T19:43:13.423Z,57.30
2022-08-12T19:45:56.558Z,57.30
2022-08-12T19:48:27.680Z,57.30
2022-08-12T19:50:57.407Z,57.30
2022-08-12T19:53:24.473Z,57.30
2022-08-12T19:55:54.364Z,57.50
2022-08-12T19:58:21.633Z,57.40
2022-08-12T20:00:53.519Z,57.40
2022-08-12T20:03:38.606Z,57.50
2022-08-12T20:06:16.045Z,57.30
2022-08-12T20:08:55.922Z,57.40
2022-08-12T20:12:10.016Z,57.50
2022-08-12T20:14:09.940Z,57.70
2022-08-12T20:16:58.046Z,57.60
2022-08-12T20:19:53.090Z,57.50
2022-08-12T20:22:24.048Z,57.60
2022-08-12T20:24:56.726Z,57.70
2022-08-12T20:27:29.627Z,57.80
2022-08-12T20:30:12.762Z,57.80
2022-08-12T20:33:00.716Z,58.00
2022-08-12T20:35:39.000Z,58.10
2022-08-12T20:38:27.308Z,58.00
2022-08-12T20:40:55.772Z,58.10
2022-08-12T20:43:28.165Z,58.10
2022-08-12T20:45:58.449Z,58.80
2022-08-12T20:48:29.463Z,58.30
2022-08-12T20:50:58.036Z,58.40
2022-08-12T20:53:54.206Z,58.40
2022-08-12T20:56:30.328Z,58.50
2022-08-12T20:58:58.773Z,58.60
2022-08-12T21:01:36.686Z,58.60
2022-08-12T21:04:30.870Z,58.70
2022-08-12T21:06:57.778Z,58.70
2022-08-12T21:09:32.652Z,58.70
2022-08-12T21:12:05.854Z,58.70
2022-08-12T21:14:56.730Z,58.70
2022-08-12T21:18:01.148Z,58.60
2022-08-12T21:20:22.510Z,58.70
2022-08-12T21:22:49.654Z,58.70
2022-08-12T21:25:17.404Z,58.90
2022-08-12T21:27:59.146Z,58.80
2022-08-12T21:30:34.220Z,58.90
2022-08-12T21:33:04.773Z,58.90
2022-08-12T21:35:40.071Z,58.90
2022-08-12T21:38:08.184Z,59.00
2022-08-12T21:40:37.222Z,59.00
2022-08-12T21:43:19.725Z,59.10
2022-08-12T21:46:00.648Z,59.10
2022-08-12T21:48:28.298Z,59.10
2022-08-12T21:50:56.378Z,59.20
2022-08-12T21:54:05.995Z,59.30
2022-08-12T21:56:10.810Z,59.50
2022-08-12T21:58:57.495Z,59.40
2022-08-12T22:01:24.253Z,59.70
2022-08-12T22:04:12.747Z,59.00
2022-08-12T22:06:43.812Z,59.10
2022-08-12T22:09:16.552Z,59.10
2022-08-12T22:11:49.323Z,59.20
2022-08-12T22:14:27.514Z,59.40
2022-08-12T22:16:54.843Z,59.50
2022-08-12T22:19:23.242Z,59.60
2022-08-12T22:21:54.971Z,59.60
2022-08-12T22:24:26.584Z,59.70
2022-08-12T22:27:22.835Z,59.90
2022-08-12T22:30:09.262Z,59.90
2022-08-12T22:32:55.284Z,59.70
2022-08-12T22:35:56.299Z,59.70
2022-08-12T22:38:24.280Z,59.70
2022-08-12T22:41:00.702Z,59.70
2022-08-12T22:43:59.140Z,59.80
2022-08-12T22:46:53.090Z,59.80
2022-08-12T22:49:36.368Z,59.80
2022-08-12T22:52:11.690Z,59.90
2022-08-12T22:54:46.363Z,60.10
2022-08-12T22:57:53.836Z,60.00
2022-08-12T23:00:24.556Z,60.10
2022-08-12T23:02:58.343Z,60.30
2022-08-12T23:05:56.719Z,60.30
2022-08-12T23:08:18.029Z,60.00
2022-08-12T23:10:45.796Z,59.90
2022-08-12T23:13:43.097Z,59.90
2022-08-12T23:16:28.455Z,60.10
2022-08-12T23:18:59.055Z,60.40
2022-08-12T23:21:26.599Z,61.30
2022-08-12T23:24:14.386Z,60.50
2022-08-12T23:27:02.776Z,60.70
2022-08-12T23:29:43.867Z,60.80
2022-08-12T23:32:35.348Z,60.80
2022-08-12T23:35:07.328Z,61.00
2022-08-12T23:37:47.473Z,61.10
2022-08-12T23:40:22.366Z,61.00
2022-08-12T23:42:54.045Z,61.00
2022-08-12T23:45:31.602Z,61.10
2022-08-12T23:48:01.332Z,60.90
2022-08-12T23:50:34.336Z,60.90
2022-08-12T23:53:05.646Z,60.90
2022-08-12T23:55:35.865Z,60.80
2022-08-12T23:58:22.993Z,60.80
